sensor_id;sensor_type;location;lat;lon;timestamp;P1;durP1;ratioP1;P2;durP2;ratioP2
59062;SDS011;44851;45.648;9.004;2023-09-19T00:00:18;5.20;;;4.47;;
59062;SDS011;44851;45.648;9.004;2023-09-19T00:02:58;6.97;;;3.97;;
59062;SDS011;44851;45.648;9.004;2023-09-19T00:05:24;5.60;;;4.13;;
59062;SDS011;44851;45.648;9.004;2023-09-19T00:07:54;6.17;;;4.33;;
59062;SDS011;44851;45.648;9.004;2023-09-19T00:10:25;6.40;;;4.30;;
59062;SDS011;44851;45.648;9.004;2023-09-19T00:12:54;6.07;;;4.40;;
59062;SDS011;44851;45.648;9.004;2023-09-19T00:15:20;7.03;;;4.17;;
59062;SDS011;44851;45.648;9.004;2023-09-19T00:17:46;4.63;;;3.67;;
59062;SDS011;44851;45.648;9.004;2023-09-19T00:20:12;7.20;;;3.77;;
59062;SDS011;44851;45.648;9.004;2023-09-19T00:22:41;5.30;;;3.67;;
59062;SDS011;44851;45.648;9.004;2023-09-19T00:25:10;4.60;;;3.60;;
59062;SDS011;44851;45.648;9.004;2023-09-19T00:27:37;7.47;;;3.70;;
59062;SDS011;44851;45.648;9.004;2023-09-19T00:30:08;6.87;;;3.40;;
59062;SDS011;44851;45.648;9.004;2023-09-19T00:32:49;4.53;;;3.20;;
59062;SDS011;44851;45.648;9.004;2023-09-19T00:35:19;4.07;;;3.13;;
59062;SDS011;44851;45.648;9.004;2023-09-19T00:37:44;5.20;;;3.40;;
59062;SDS011;44851;45.648;9.004;2023-09-19T00:40:10;4.10;;;3.23;;
59062;SDS011;44851;45.648;9.004;2023-09-19T00:42:40;5.43;;;3.07;;
59062;SDS011;44851;45.648;9.004;2023-09-19T00:45:09;4.30;;;2.90;;
59062;SDS011;44851;45.648;9.004;2023-09-19T00:47:37;3.87;;;3.00;;
59062;SDS011;44851;45.648;9.004;2023-09-19T00:50:04;5.03;;;2.90;;
59062;SDS011;44851;45.648;9.004;2023-09-19T00:52:33;7.17;;;3.30;;
59062;SDS011;44851;45.648;9.004;2023-09-19T00:55:01;4.77;;;3.07;;
59062;SDS011;44851;45.648;9.004;2023-09-19T00:57:27;5.70;;;2.87;;
59062;SDS011;44851;45.648;9.004;2023-09-19T00:59:54;5.43;;;2.90;;
59062;SDS011;44851;45.648;9.004;2023-09-19T01:02:20;3.93;;;3.03;;
59062;SDS011;44851;45.648;9.004;2023-09-19T01:04:47;5.10;;;2.87;;
59062;SDS011;44851;45.648;9.004;2023-09-19T01:07:12;7.20;;;3.23;;
59062;SDS011;44851;45.648;9.004;2023-09-19T01:09:40;6.87;;;2.93;;
59062;SDS011;44851;45.648;9.004;2023-09-19T01:12:06;4.40;;;2.83;;
59062;SDS011;44851;45.648;9.004;2023-09-19T01:17:30;3.20;;;2.90;;
59062;SDS011;44851;45.648;9.004;2023-09-19T01:20:11;3.30;;;2.80;;
59062;SDS011;44851;45.648;9.004;2023-09-19T01:22:47;4.33;;;3.20;;
59062;SDS011;44851;45.648;9.004;2023-09-19T01:28:43;6.47;;;3.37;;
59062;SDS011;44851;45.648;9.004;2023-09-19T01:31:19;5.60;;;3.13;;
59062;SDS011;44851;45.648;9.004;2023-09-19T01:34:01;4.83;;;3.70;;
59062;SDS011;44851;45.648;9.004;2023-09-19T01:36:32;5.87;;;3.20;;
59062;SDS011;44851;45.648;9.004;2023-09-19T01:39:02;5.93;;;3.30;;
59062;SDS011;44851;45.648;9.004;2023-09-19T01:42:10;3.70;;;3.27;;
59062;SDS011;44851;45.648;9.004;2023-09-19T01:44:51;3.83;;;3.23;;
59062;SDS011;44851;45.648;9.004;2023-09-19T01:48:08;4.27;;;3.40;;
59062;SDS011;44851;45.648;9.004;2023-09-19T01:53:10;3.67;;;2.90;;
59062;SDS011;44851;45.648;9.004;2023-09-19T01:55:46;4.63;;;3.37;;
59062;SDS011;44851;45.648;9.004;2023-09-19T02:01:04;5.13;;;3.30;;
59062;SDS011;44851;45.648;9.004;2023-09-19T02:03:31;4.77;;;3.30;;
59062;SDS011;44851;45.648;9.004;2023-09-19T02:05:58;5.20;;;3.30;;
59062;SDS011;44851;45.648;9.004;2023-09-19T02:08:24;4.40;;;3.30;;
59062;SDS011;44851;45.648;9.004;2023-09-19T02:10:49;5.50;;;3.33;;
59062;SDS011;44851;45.648;9.004;2023-09-19T02:13:21;4.70;;;2.90;;
59062;SDS011;44851;45.648;9.004;2023-09-19T02:15:52;5.23;;;3.37;;
59062;SDS011;44851;45.648;9.004;2023-09-19T02:18:18;5.03;;;3.43;;
59062;SDS011;44851;45.648;9.004;2023-09-19T02:20:44;5.30;;;3.10;;
59062;SDS011;44851;45.648;9.004;2023-09-19T02:23:11;4.23;;;3.70;;
59062;SDS011;44851;45.648;9.004;2023-09-19T02:25:37;3.90;;;3.50;;
59062;SDS011;44851;45.648;9.004;2023-09-19T02:28:05;9.10;;;3.47;;
59062;SDS011;44851;45.648;9.004;2023-09-19T02:30:31;4.37;;;3.43;;
59062;SDS011;44851;45.648;9.004;2023-09-19T02:32:56;5.33;;;3.60;;
59062;SDS011;44851;45.648;9.004;2023-09-19T02:35:22;5.63;;;3.33;;
59062;SDS011;44851;45.648;9.004;2023-09-19T02:37:47;6.43;;;3.53;;
59062;SDS011;44851;45.648;9.004;2023-09-19T02:40:13;4.30;;;3.60;;
59062;SDS011;44851;45.648;9.004;2023-09-19T02:42:47;4.87;;;3.00;;
59062;SDS011;44851;45.648;9.004;2023-09-19T02:45:14;2.90;;;2.70;;
59062;SDS011;44851;45.648;9.004;2023-09-19T02:47:41;5.60;;;3.20;;
59062;SDS011;44851;45.648;9.004;2023-09-19T02:50:06;4.93;;;3.37;;
59062;SDS011;44851;45.648;9.004;2023-09-19T02:52:31;7.33;;;3.53;;
59062;SDS011;44851;45.648;9.004;2023-09-19T02:54:57;5.13;;;3.37;;
59062;SDS011;44851;45.648;9.004;2023-09-19T02:57:22;3.47;;;2.80;;
59062;SDS011;44851;45.648;9.004;2023-09-19T02:59:49;4.83;;;3.47;;
59062;SDS011;44851;45.648;9.004;2023-09-19T03:02:14;6.63;;;3.30;;
59062;SDS011;44851;45.648;9.004;2023-09-19T03:04:40;6.60;;;3.40;;
59062;SDS011;44851;45.648;9.004;2023-09-19T03:07:06;5.27;;;3.77;;
59062;SDS011;44851;45.648;9.004;2023-09-19T03:09:31;3.93;;;3.47;;
59062;SDS011;44851;45.648;9.004;2023-09-19T03:11:57;4.97;;;3.33;;
59062;SDS011;44851;45.648;9.004;2023-09-19T03:14:23;4.63;;;3.30;;
59062;SDS011;44851;45.648;9.004;2023-09-19T03:16:48;4.33;;;3.43;;
59062;SDS011;44851;45.648;9.004;2023-09-19T03:19:14;4.93;;;3.53;;
59062;SDS011;44851;45.648;9.004;2023-09-19T03:21:40;3.73;;;3.40;;
59062;SDS011;44851;45.648;9.004;2023-09-19T03:24:05;4.10;;;3.10;;
59062;SDS011;44851;45.648;9.004;2023-09-19T03:26:31;3.97;;;3.10;;
59062;SDS011;44851;45.648;9.004;2023-09-19T03:28:58;5.10;;;3.67;;
59062;SDS011;44851;45.648;9.004;2023-09-19T03:31:23;5.43;;;3.30;;
59062;SDS011;44851;45.648;9.004;2023-09-19T03:33:49;3.53;;;3.20;;
59062;SDS011;44851;45.648;9.004;2023-09-19T03:36:14;5.10;;;3.37;;
59062;SDS011;44851;45.648;9.004;2023-09-19T03:38:39;6.83;;;3.90;;
59062;SDS011;44851;45.648;9.004;2023-09-19T03:41:05;4.33;;;3.90;;
59062;SDS011;44851;45.648;9.004;2023-09-19T03:43:31;4.50;;;3.27;;
59062;SDS011;44851;45.648;9.004;2023-09-19T03:46:01;3.70;;;3.33;;
59062;SDS011;44851;45.648;9.004;2023-09-19T03:48:28;6.07;;;3.77;;
59062;SDS011;44851;45.648;9.004;2023-09-19T03:50:54;5.77;;;3.87;;
59062;SDS011;44851;45.648;9.004;2023-09-19T03:53:21;4.30;;;3.50;;
59062;SDS011;44851;45.648;9.004;2023-09-19T03:55:47;4.23;;;3.60;;
59062;SDS011;44851;45.648;9.004;2023-09-19T03:58:12;9.30;;;3.50;;
59062;SDS011;44851;45.648;9.004;2023-09-19T04:00:38;4.63;;;3.63;;
59062;SDS011;44851;45.648;9.004;2023-09-19T04:03:03;5.87;;;4.00;;
59062;SDS011;44851;45.648;9.004;2023-09-19T04:05:31;5.43;;;3.30;;
59062;SDS011;44851;45.648;9.004;2023-09-19T04:07:57;7.10;;;3.93;;
59062;SDS011;44851;45.648;9.004;2023-09-19T04:10:23;4.27;;;3.63;;
59062;SDS011;44851;45.648;9.004;2023-09-19T04:12:51;4.87;;;3.50;;
59062;SDS011;44851;45.648;9.004;2023-09-19T04:15:18;5.57;;;3.90;;
59062;SDS011;44851;45.648;9.004;2023-09-19T04:17:43;4.47;;;3.80;;
59062;SDS011;44851;45.648;9.004;2023-09-19T04:20:09;4.50;;;3.30;;
59062;SDS011;44851;45.648;9.004;2023-09-19T04:22:37;4.00;;;3.43;;
59062;SDS011;44851;45.648;9.004;2023-09-19T04:25:03;6.07;;;3.87;;
59062;SDS011;44851;45.648;9.004;2023-09-19T04:27:28;5.47;;;3.80;;
59062;SDS011;44851;45.648;9.004;2023-09-19T04:29:54;3.73;;;3.30;;
59062;SDS011;44851;45.648;9.004;2023-09-19T04:32:28;5.97;;;3.40;;
59062;SDS011;44851;45.648;9.004;2023-09-19T04:34:54;5.13;;;3.97;;
59062;SDS011;44851;45.648;9.004;2023-09-19T04:37:20;7.27;;;3.97;;
59062;SDS011;44851;45.648;9.004;2023-09-19T04:39:46;4.77;;;3.50;;
59062;SDS011;44851;45.648;9.004;2023-09-19T04:42:12;4.30;;;3.60;;
59062;SDS011;44851;45.648;9.004;2023-09-19T04:44:39;4.17;;;3.77;;
59062;SDS011;44851;45.648;9.004;2023-09-19T04:47:05;7.30;;;3.50;;
59062;SDS011;44851;45.648;9.004;2023-09-19T04:49:31;5.50;;;3.43;;
59062;SDS011;44851;45.648;9.004;2023-09-19T04:51:56;5.40;;;3.50;;
59062;SDS011;44851;45.648;9.004;2023-09-19T04:54:21;3.97;;;3.30;;
59062;SDS011;44851;45.648;9.004;2023-09-19T04:56:48;3.77;;;3.33;;
59062;SDS011;44851;45.648;9.004;2023-09-19T04:59:13;5.43;;;3.60;;
59062;SDS011;44851;45.648;9.004;2023-09-19T05:01:40;4.53;;;3.30;;
59062;SDS011;44851;45.648;9.004;2023-09-19T05:04:05;5.63;;;3.63;;
59062;SDS011;44851;45.648;9.004;2023-09-19T05:06:30;3.80;;;3.30;;
59062;SDS011;44851;45.648;9.004;2023-09-19T05:08:56;5.00;;;3.87;;
59062;SDS011;44851;45.648;9.004;2023-09-19T05:11:21;5.20;;;3.43;;
59062;SDS011;44851;45.648;9.004;2023-09-19T05:13:48;4.20;;;3.50;;
59062;SDS011;44851;45.648;9.004;2023-09-19T05:16:17;7.10;;;3.77;;
59062;SDS011;44851;45.648;9.004;2023-09-19T05:18:43;7.27;;;3.67;;
59062;SDS011;44851;45.648;9.004;2023-09-19T05:21:08;7.37;;;3.80;;
59062;SDS011;44851;45.648;9.004;2023-09-19T05:23:34;4.40;;;3.97;;
59062;SDS011;44851;45.648;9.004;2023-09-19T05:25:59;5.30;;;3.77;;
59062;SDS011;44851;45.648;9.004;2023-09-19T05:28:25;5.37;;;3.40;;
59062;SDS011;44851;45.648;9.004;2023-09-19T05:30:50;5.90;;;3.90;;
59062;SDS011;44851;45.648;9.004;2023-09-19T05:33:16;4.23;;;3.80;;
59062;SDS011;44851;45.648;9.004;2023-09-19T05:35:43;5.90;;;4.17;;
59062;SDS011;44851;45.648;9.004;2023-09-19T05:38:08;5.53;;;3.90;;
59062;SDS011;44851;45.648;9.004;2023-09-19T05:40:34;4.20;;;3.47;;
59062;SDS011;44851;45.648;9.004;2023-09-19T05:43:00;5.37;;;3.53;;
59062;SDS011;44851;45.648;9.004;2023-09-19T05:45:27;4.97;;;3.23;;
59062;SDS011;44851;45.648;9.004;2023-09-19T05:47:52;4.23;;;3.80;;
59062;SDS011;44851;45.648;9.004;2023-09-19T05:50:26;4.53;;;3.80;;
59062;SDS011;44851;45.648;9.004;2023-09-19T05:52:52;5.67;;;3.70;;
59062;SDS011;44851;45.648;9.004;2023-09-19T05:55:18;5.90;;;3.57;;
59062;SDS011;44851;45.648;9.004;2023-09-19T05:57:43;7.03;;;3.87;;
59062;SDS011;44851;45.648;9.004;2023-09-19T06:00:15;4.93;;;3.93;;
59062;SDS011;44851;45.648;9.004;2023-09-19T06:02:42;4.23;;;3.83;;
59062;SDS011;44851;45.648;9.004;2023-09-19T06:05:09;7.60;;;3.97;;
59062;SDS011;44851;45.648;9.004;2023-09-19T06:07:35;5.30;;;3.83;;
59062;SDS011;44851;45.648;9.004;2023-09-19T06:10:03;6.63;;;4.37;;
59062;SDS011;44851;45.648;9.004;2023-09-19T06:12:30;4.80;;;3.77;;
59062;SDS011;44851;45.648;9.004;2023-09-19T06:14:58;5.03;;;4.13;;
59062;SDS011;44851;45.648;9.004;2023-09-19T06:17:24;5.07;;;4.57;;
59062;SDS011;44851;45.648;9.004;2023-09-19T06:19:49;5.70;;;3.80;;
59062;SDS011;44851;45.648;9.004;2023-09-19T06:22:16;5.63;;;4.27;;
59062;SDS011;44851;45.648;9.004;2023-09-19T06:24:43;5.50;;;4.10;;
59062;SDS011;44851;45.648;9.004;2023-09-19T06:27:09;9.53;;;5.00;;
59062;SDS011;44851;45.648;9.004;2023-09-19T06:29:34;6.23;;;3.90;;
59062;SDS011;44851;45.648;9.004;2023-09-19T06:32:02;6.47;;;3.60;;
59062;SDS011;44851;45.648;9.004;2023-09-19T06:34:31;5.83;;;4.20;;
59062;SDS011;44851;45.648;9.004;2023-09-19T06:36:58;4.57;;;4.10;;
59062;SDS011;44851;45.648;9.004;2023-09-19T06:39:23;5.83;;;3.93;;
59062;SDS011;44851;45.648;9.004;2023-09-19T06:41:50;3.60;;;3.30;;
59062;SDS011;44851;45.648;9.004;2023-09-19T06:44:18;4.47;;;3.50;;
59062;SDS011;44851;45.648;9.004;2023-09-19T06:46:45;4.93;;;3.93;;
59062;SDS011;44851;45.648;9.004;2023-09-19T06:49:15;6.37;;;3.97;;
59062;SDS011;44851;45.648;9.004;2023-09-19T06:51:41;5.10;;;3.73;;
59062;SDS011;44851;45.648;9.004;2023-09-19T06:54:07;5.10;;;3.60;;
59062;SDS011;44851;45.648;9.004;2023-09-19T06:56:32;6.10;;;3.80;;
59062;SDS011;44851;45.648;9.004;2023-09-19T06:58:58;4.80;;;3.47;;
59062;SDS011;44851;45.648;9.004;2023-09-19T07:01:23;7.03;;;3.37;;
59062;SDS011;44851;45.648;9.004;2023-09-19T07:03:48;5.10;;;3.80;;
59062;SDS011;44851;45.648;9.004;2023-09-19T07:06:14;4.43;;;3.10;;
59062;SDS011;44851;45.648;9.004;2023-09-19T07:08:39;3.73;;;3.10;;
59062;SDS011;44851;45.648;9.004;2023-09-19T07:11:05;5.63;;;3.13;;
59062;SDS011;44851;45.648;9.004;2023-09-19T07:13:31;4.97;;;3.10;;
59062;SDS011;44851;45.648;9.004;2023-09-19T07:15:58;3.57;;;3.10;;
59062;SDS011;44851;45.648;9.004;2023-09-19T07:18:24;7.53;;;3.27;;
59062;SDS011;44851;45.648;9.004;2023-09-19T07:20:50;6.47;;;3.10;;
59062;SDS011;44851;45.648;9.004;2023-09-19T07:23:18;4.63;;;3.40;;
59062;SDS011;44851;45.648;9.004;2023-09-19T07:25:45;6.13;;;3.53;;
59062;SDS011;44851;45.648;9.004;2023-09-19T07:28:11;3.97;;;3.00;;
59062;SDS011;44851;45.648;9.004;2023-09-19T07:30:36;4.87;;;2.73;;
59062;SDS011;44851;45.648;9.004;2023-09-19T07:33:02;3.87;;;2.57;;
59062;SDS011;44851;45.648;9.004;2023-09-19T07:35:30;4.60;;;2.70;;
59062;SDS011;44851;45.648;9.004;2023-09-19T07:37:55;3.13;;;2.67;;
59062;SDS011;44851;45.648;9.004;2023-09-19T07:40:21;3.20;;;2.83;;
59062;SDS011;44851;45.648;9.004;2023-09-19T07:42:49;5.30;;;2.60;;
59062;SDS011;44851;45.648;9.004;2023-09-19T07:45:15;3.17;;;2.50;;
59062;SDS011;44851;45.648;9.004;2023-09-19T07:47:45;8.83;;;2.87;;
59062;SDS011;44851;45.648;9.004;2023-09-19T07:50:11;4.23;;;2.30;;
59062;SDS011;44851;45.648;9.004;2023-09-19T07:52:37;4.23;;;2.10;;
59062;SDS011;44851;45.648;9.004;2023-09-19T07:55:04;4.30;;;2.60;;
59062;SDS011;44851;45.648;9.004;2023-09-19T07:57:34;5.37;;;3.20;;
59062;SDS011;44851;45.648;9.004;2023-09-19T08:00:02;4.23;;;3.30;;
59062;SDS011;44851;45.648;9.004;2023-09-19T08:02:38;6.17;;;2.50;;
59062;SDS011;44851;45.648;9.004;2023-09-19T08:05:05;5.63;;;2.80;;
59062;SDS011;44851;45.648;9.004;2023-09-19T08:07:34;5.17;;;2.80;;
59062;SDS011;44851;45.648;9.004;2023-09-19T08:10:01;4.37;;;2.87;;
59062;SDS011;44851;45.648;9.004;2023-09-19T08:12:26;6.20;;;2.80;;
59062;SDS011;44851;45.648;9.004;2023-09-19T08:14:52;3.23;;;2.57;;
59062;SDS011;44851;45.648;9.004;2023-09-19T08:17:17;6.40;;;2.90;;
59062;SDS011;44851;45.648;9.004;2023-09-19T08:19:45;6.37;;;3.00;;
59062;SDS011;44851;45.648;9.004;2023-09-19T08:22:11;4.10;;;2.47;;
59062;SDS011;44851;45.648;9.004;2023-09-19T08:24:36;5.30;;;2.53;;
59062;SDS011;44851;45.648;9.004;2023-09-19T08:27:03;3.60;;;2.57;;
59062;SDS011;44851;45.648;9.004;2023-09-19T08:29:30;6.53;;;2.50;;
59062;SDS011;44851;45.648;9.004;2023-09-19T08:31:56;3.63;;;2.57;;
59062;SDS011;44851;45.648;9.004;2023-09-19T08:34:23;8.07;;;3.37;;
59062;SDS011;44851;45.648;9.004;2023-09-19T08:36:52;5.00;;;2.90;;
59062;SDS011;44851;45.648;9.004;2023-09-19T08:39:21;4.83;;;2.70;;
59062;SDS011;44851;45.648;9.004;2023-09-19T08:41:47;4.37;;;2.73;;
59062;SDS011;44851;45.648;9.004;2023-09-19T08:44:12;5.80;;;3.03;;
59062;SDS011;44851;45.648;9.004;2023-09-19T08:46:38;5.50;;;3.40;;
59062;SDS011;44851;45.648;9.004;2023-09-19T08:49:16;4.87;;;3.27;;
59062;SDS011;44851;45.648;9.004;2023-09-19T08:51:53;4.23;;;3.10;;
59062;SDS011;44851;45.648;9.004;2023-09-19T08:54:22;5.03;;;2.90;;
59062;SDS011;44851;45.648;9.004;2023-09-19T08:56:51;5.37;;;2.87;;
59062;SDS011;44851;45.648;9.004;2023-09-19T08:59:21;5.03;;;3.03;;
59062;SDS011;44851;45.648;9.004;2023-09-19T09:01:49;5.63;;;3.03;;
59062;SDS011;44851;45.648;9.004;2023-09-19T09:04:18;5.70;;;2.83;;
59062;SDS011;44851;45.648;9.004;2023-09-19T09:06:44;5.07;;;3.00;;
59062;SDS011;44851;45.648;9.004;2023-09-19T09:09:11;5.37;;;2.97;;
59062;SDS011;44851;45.648;9.004;2023-09-19T09:11:37;6.93;;;3.10;;
59062;SDS011;44851;45.648;9.004;2023-09-19T09:14:05;4.70;;;2.97;;
59062;SDS011;44851;45.648;9.004;2023-09-19T09:16:32;5.20;;;2.90;;
59062;SDS011;44851;45.648;9.004;2023-09-19T09:18:57;5.70;;;3.00;;
59062;SDS011;44851;45.648;9.004;2023-09-19T09:21:24;5.30;;;3.20;;
59062;SDS011;44851;45.648;9.004;2023-09-19T09:23:51;4.67;;;2.90;;
59062;SDS011;44851;45.648;9.004;2023-09-19T09:26:17;4.23;;;3.10;;
59062;SDS011;44851;45.648;9.004;2023-09-19T09:29:05;7.37;;;3.30;;
59062;SDS011;44851;45.648;9.004;2023-09-19T09:31:31;3.13;;;2.73;;
59062;SDS011;44851;45.648;9.004;2023-09-19T09:33:56;4.50;;;3.27;;
59062;SDS011;44851;45.648;9.004;2023-09-19T09:36:35;4.67;;;3.17;;
59062;SDS011;44851;45.648;9.004;2023-09-19T09:39:02;7.70;;;3.43;;
59062;SDS011;44851;45.648;9.004;2023-09-19T09:41:41;6.33;;;3.43;;
59062;SDS011;44851;45.648;9.004;2023-09-19T09:44:14;4.60;;;3.10;;
59062;SDS011;44851;45.648;9.004;2023-09-19T09:46:43;7.20;;;3.10;;
59062;SDS011;44851;45.648;9.004;2023-09-19T09:49:15;6.43;;;3.50;;
59062;SDS011;44851;45.648;9.004;2023-09-19T09:51:48;5.40;;;3.23;;
59062;SDS011;44851;45.648;9.004;2023-09-19T09:54:28;5.73;;;3.17;;
59062;SDS011;44851;45.648;9.004;2023-09-19T10:02:26;4.90;;;2.70;;
59062;SDS011;44851;45.648;9.004;2023-09-19T10:05:03;5.93;;;3.17;;
59062;SDS011;44851;45.648;9.004;2023-09-19T10:07:50;6.50;;;2.83;;
59062;SDS011;44851;45.648;9.004;2023-09-19T10:10:32;5.93;;;3.17;;
59062;SDS011;44851;45.648;9.004;2023-09-19T10:13:19;4.60;;;2.70;;
59062;SDS011;44851;45.648;9.004;2023-09-19T10:15:48;4.80;;;3.33;;
59062;SDS011;44851;45.648;9.004;2023-09-19T10:18:23;3.63;;;3.00;;
59062;SDS011;44851;45.648;9.004;2023-09-19T10:20:50;3.20;;;2.90;;
59062;SDS011;44851;45.648;9.004;2023-09-19T10:23:17;5.43;;;3.37;;
59062;SDS011;44851;45.648;9.004;2023-09-19T10:25:48;5.90;;;3.20;;
59062;SDS011;44851;45.648;9.004;2023-09-19T10:28:15;4.00;;;2.73;;
59062;SDS011;44851;45.648;9.004;2023-09-19T10:30:45;5.53;;;3.70;;
59062;SDS011;44851;45.648;9.004;2023-09-19T10:33:15;4.97;;;3.57;;
59062;SDS011;44851;45.648;9.004;2023-09-19T10:35:43;4.97;;;3.73;;
59062;SDS011;44851;45.648;9.004;2023-09-19T10:38:11;6.07;;;4.07;;
59062;SDS011;44851;45.648;9.004;2023-09-19T10:40:38;7.60;;;4.77;;
59062;SDS011;44851;45.648;9.004;2023-09-19T10:43:20;6.90;;;4.73;;
59062;SDS011;44851;45.648;9.004;2023-09-19T10:45:50;6.70;;;5.00;;
59062;SDS011;44851;45.648;9.004;2023-09-19T10:48:18;6.03;;;5.20;;
59062;SDS011;44851;45.648;9.004;2023-09-19T10:54:06;9.90;;;6.67;;
59062;SDS011;44851;45.648;9.004;2023-09-19T10:56:38;8.70;;;5.70;;
59062;SDS011;44851;45.648;9.004;2023-09-19T10:59:10;8.17;;;5.93;;
59062;SDS011;44851;45.648;9.004;2023-09-19T11:09:35;5.20;;;4.23;;
59062;SDS011;44851;45.648;9.004;2023-09-19T11:15:10;5.93;;;3.80;;
59062;SDS011;44851;45.648;9.004;2023-09-19T11:18:50;5.27;;;3.90;;
59062;SDS011;44851;45.648;9.004;2023-09-19T11:24:29;6.43;;;4.00;;
59062;SDS011;44851;45.648;9.004;2023-09-19T11:27:09;6.23;;;3.90;;
59062;SDS011;44851;45.648;9.004;2023-09-19T11:29:38;4.47;;;3.97;;
59062;SDS011;44851;45.648;9.004;2023-09-19T11:32:05;4.28;;;3.65;;
59062;SDS011;44851;45.648;9.004;2023-09-19T11:37:59;7.23;;;4.43;;
59062;SDS011;44851;45.648;9.004;2023-09-19T11:40:09;5.33;;;3.73;;
59062;SDS011;44851;45.648;9.004;2023-09-19T11:48:15;4.90;;;3.80;;
59062;SDS011;44851;45.648;9.004;2023-09-19T11:50:43;5.45;;;4.10;;
59062;SDS011;44851;45.648;9.004;2023-09-19T11:53:13;7.83;;;4.33;;
59062;SDS011;44851;45.648;9.004;2023-09-19T11:55:39;5.37;;;4.33;;
59062;SDS011;44851;45.648;9.004;2023-09-19T11:58:06;5.83;;;5.20;;
59062;SDS011;44851;45.648;9.004;2023-09-19T12:00:33;8.32;;;6.00;;
59062;SDS011;44851;45.648;9.004;2023-09-19T12:03:07;6.60;;;4.93;;
59062;SDS011;44851;45.648;9.004;2023-09-19T12:05:34;6.65;;;4.80;;
59062;SDS011;44851;45.648;9.004;2023-09-19T12:08:02;7.47;;;4.67;;
59062;SDS011;44851;45.648;9.004;2023-09-19T12:10:28;4.65;;;4.00;;
59062;SDS011;44851;45.648;9.004;2023-09-19T12:12:53;6.60;;;3.83;;
59062;SDS011;44851;45.648;9.004;2023-09-19T12:15:24;5.93;;;5.28;;
59062;SDS011;44851;45.648;9.004;2023-09-19T12:17:59;6.57;;;4.82;;
59062;SDS011;44851;45.648;9.004;2023-09-19T12:20:25;7.22;;;4.40;;
59062;SDS011;44851;45.648;9.004;2023-09-19T12:22:50;10.13;;;4.95;;
59062;SDS011;44851;45.648;9.004;2023-09-19T12:25:16;4.63;;;3.22;;
59062;SDS011;44851;45.648;9.004;2023-09-19T12:27:46;5.85;;;4.57;;
59062;SDS011;44851;45.648;9.004;2023-09-19T12:30:14;5.45;;;3.92;;
59062;SDS011;44851;45.648;9.004;2023-09-19T12:32:42;5.63;;;3.85;;
59062;SDS011;44851;45.648;9.004;2023-09-19T12:35:09;6.40;;;3.72;;
59062;SDS011;44851;45.648;9.004;2023-09-19T12:37:45;5.38;;;3.53;;
59062;SDS011;44851;45.648;9.004;2023-09-19T12:40:18;5.28;;;4.40;;
59062;SDS011;44851;45.648;9.004;2023-09-19T12:42:50;5.88;;;4.10;;
59062;SDS011;44851;45.648;9.004;2023-09-19T12:45:18;5.63;;;3.95;;
59062;SDS011;44851;45.648;9.004;2023-09-19T12:51:09;5.65;;;3.55;;
59062;SDS011;44851;45.648;9.004;2023-09-19T12:53:38;5.95;;;3.78;;
59062;SDS011;44851;45.648;9.004;2023-09-19T12:56:07;7.72;;;4.03;;
59062;SDS011;44851;45.648;9.004;2023-09-19T12:58:35;5.03;;;3.97;;
59062;SDS011;44851;45.648;9.004;2023-09-19T13:01:16;4.68;;;3.75;;
59062;SDS011;44851;45.648;9.004;2023-09-19T13:03:42;9.30;;;4.95;;
59062;SDS011;44851;45.648;9.004;2023-09-19T13:06:07;5.75;;;4.05;;
59062;SDS011;44851;45.648;9.004;2023-09-19T13:08:35;6.18;;;3.80;;
59062;SDS011;44851;45.648;9.004;2023-09-19T13:16:07;6.75;;;3.75;;
59062;SDS011;44851;45.648;9.004;2023-09-19T13:18:50;5.65;;;4.85;;
59062;SDS011;44851;45.648;9.004;2023-09-19T13:21:26;5.45;;;3.97;;
59062;SDS011;44851;45.648;9.004;2023-09-19T13:23:55;4.47;;;3.95;;
59062;SDS011;44851;45.648;9.004;2023-09-19T13:26:27;5.03;;;3.70;;
59062;SDS011;44851;45.648;9.004;2023-09-19T13:28:56;3.88;;;3.40;;
59062;SDS011;44851;45.648;9.004;2023-09-19T13:31:21;5.95;;;3.92;;
59062;SDS011;44851;45.648;9.004;2023-09-19T13:33:48;4.78;;;3.78;;
59062;SDS011;44851;45.648;9.004;2023-09-19T13:36:15;4.97;;;3.70;;
59062;SDS011;44851;45.648;9.004;2023-09-19T13:38:41;5.53;;;3.65;;
59062;SDS011;44851;45.648;9.004;2023-09-19T13:41:10;4.80;;;3.10;;
59062;SDS011;44851;45.648;9.004;2023-09-19T13:43:36;4.47;;;3.60;;
59062;SDS011;44851;45.648;9.004;2023-09-19T13:46:02;5.53;;;3.47;;
59062;SDS011;44851;45.648;9.004;2023-09-19T13:48:29;5.85;;;3.47;;
59062;SDS011;44851;45.648;9.004;2023-09-19T13:50:55;4.95;;;4.00;;
59062;SDS011;44851;45.648;9.004;2023-09-19T13:53:20;4.57;;;3.33;;
59062;SDS011;44851;45.648;9.004;2023-09-19T13:55:46;6.70;;;4.25;;
59062;SDS011;44851;45.648;9.004;2023-09-19T13:58:13;7.53;;;3.57;;
59062;SDS011;44851;45.648;9.004;2023-09-19T14:00:38;3.67;;;3.22;;
59062;SDS011;44851;45.648;9.004;2023-09-19T14:03:04;3.65;;;3.30;;
59062;SDS011;44851;45.648;9.004;2023-09-19T14:05:30;4.30;;;3.28;;
59062;SDS011;44851;45.648;9.004;2023-09-19T14:07:56;6.75;;;3.50;;
59062;SDS011;44851;45.648;9.004;2023-09-19T14:10:22;4.07;;;3.20;;
59062;SDS011;44851;45.648;9.004;2023-09-19T14:12:47;3.85;;;3.20;;
59062;SDS011;44851;45.648;9.004;2023-09-19T14:15:13;5.73;;;3.20;;
59062;SDS011;44851;45.648;9.004;2023-09-19T14:17:39;4.95;;;3.80;;
59062;SDS011;44851;45.648;9.004;2023-09-19T14:20:07;6.40;;;3.50;;
59062;SDS011;44851;45.648;9.004;2023-09-19T14:22:35;4.43;;;3.47;;
59062;SDS011;44851;45.648;9.004;2023-09-19T14:25:01;6.18;;;3.60;;
59062;SDS011;44851;45.648;9.004;2023-09-19T14:27:27;3.53;;;3.22;;
59062;SDS011;44851;45.648;9.004;2023-09-19T14:29:52;2.90;;;2.60;;
59062;SDS011;44851;45.648;9.004;2023-09-19T14:32:17;4.63;;;3.37;;
59062;SDS011;44851;45.648;9.004;2023-09-19T14:34:43;5.63;;;3.22;;
59062;SDS011;44851;45.648;9.004;2023-09-19T14:37:09;5.45;;;3.10;;
59062;SDS011;44851;45.648;9.004;2023-09-19T14:39:36;9.32;;;3.47;;
59062;SDS011;44851;45.648;9.004;2023-09-19T14:42:03;6.17;;;3.30;;
59062;SDS011;44851;45.648;9.004;2023-09-19T14:44:29;5.43;;;3.30;;
59062;SDS011;44851;45.648;9.004;2023-09-19T14:46:54;5.67;;;3.40;;
59062;SDS011;44851;45.648;9.004;2023-09-19T14:49:20;5.20;;;4.03;;
59062;SDS011;44851;45.648;9.004;2023-09-19T14:51:45;6.13;;;4.00;;
59062;SDS011;44851;45.648;9.004;2023-09-19T14:54:12;4.73;;;3.37;;
59062;SDS011;44851;45.648;9.004;2023-09-19T14:56:37;6.83;;;3.40;;
59062;SDS011;44851;45.648;9.004;2023-09-19T14:59:03;4.43;;;3.47;;
59062;SDS011;44851;45.648;9.004;2023-09-19T15:01:29;4.13;;;3.43;;
59062;SDS011;44851;45.648;9.004;2023-09-19T15:03:54;6.23;;;3.60;;
59062;SDS011;44851;45.648;9.004;2023-09-19T15:06:20;4.97;;;2.87;;
59062;SDS011;44851;45.648;9.004;2023-09-19T15:08:47;4.00;;;3.10;;
59062;SDS011;44851;45.648;9.004;2023-09-19T15:11:18;3.63;;;2.70;;
59062;SDS011;44851;45.648;9.004;2023-09-19T15:13:45;3.90;;;2.70;;
59062;SDS011;44851;45.648;9.004;2023-09-19T15:16:11;3.37;;;2.60;;
59062;SDS011;44851;45.648;9.004;2023-09-19T15:18:38;4.17;;;2.90;;
59062;SDS011;44851;45.648;9.004;2023-09-19T15:21:06;3.67;;;3.00;;
59062;SDS011;44851;45.648;9.004;2023-09-19T15:23:36;4.73;;;2.83;;
59062;SDS011;44851;45.648;9.004;2023-09-19T15:26:05;3.13;;;2.70;;
59062;SDS011;44851;45.648;9.004;2023-09-19T15:28:36;5.67;;;3.33;;
59062;SDS011;44851;45.648;9.004;2023-09-19T15:31:03;3.63;;;2.93;;
59062;SDS011;44851;45.648;9.004;2023-09-19T15:33:30;3.87;;;2.63;;
59062;SDS011;44851;45.648;9.004;2023-09-19T15:36:13;4.83;;;2.90;;
59062;SDS011;44851;45.648;9.004;2023-09-19T15:38:58;3.80;;;2.70;;
59062;SDS011;44851;45.648;9.004;2023-09-19T15:41:24;4.83;;;2.83;;
59062;SDS011;44851;45.648;9.004;2023-09-19T15:43:57;3.20;;;2.87;;
59062;SDS011;44851;45.648;9.004;2023-09-19T15:46:26;5.70;;;3.07;;